Time;durP1;ratioP1;P1;durP2;ratioP2;P2;SDS_P1;SDS_P2;PMS_P1;PMS_P2;Temp;Humidity;BMP_temperature;BMP_pressure;BME280_temperature;BME280_humidity;BME280_pressure;Samples;Min_cycle;Max_cycle;Signal;HPM_P1;HPM_P2
2022/03/27 00:00:55;;;;;;;20.83;12.60;;;;;;;12.93;43.07;101819.47;4145924;28;20038;-67
2022/03/27 00:02:58;;;;;;;19.48;10.63;;;;;;;12.81;43.85;101818.28;4135710;28;20070;-67
2022/03/27 00:05:01;;;;;;;15.98;10.35;;;;;;;12.78;43.65;101821.69;4139589;28;20057;-67
2022/03/27 00:07:04;;;;;;;21.83;11.93;;;;;;;12.98;43.52;101818.69;4147567;28;20373;-67
2022/03/27 00:09:07;;;;;;;20.10;10.80;;;;;;;12.86;43.87;101820.13;4143236;28;20460;-67
2022/03/27 00:11:24;;;;;;;20.98;11.85;;;;;;;12.72;44.29;101811.97;4144460;28;20053;-67
2022/03/27 00:13:26;;;;;;;14.27;10.57;;;;;;;12.74;43.98;101817.22;4139310;28;20041;-67
2022/03/27 00:15:29;;;;;;;19.83;10.65;;;;;;;12.72;43.92;101818.91;4142556;28;20046;-67
2022/03/27 00:17:34;;;;;;;16.80;11.27;;;;;;;12.78;44.60;101820.81;4142208;28;20038;-66
2022/03/27 00:19:36;;;;;;;18.95;10.77;;;;;;;12.75;43.96;101813.78;4146269;28;20048;-66
2022/03/27 00:21:41;;;;;;;19.65;10.80;;;;;;;12.69;44.47;101819.69;4145321;28;20528;-66
2022/03/27 00:23:44;;;;;;;16.58;10.40;;;;;;;12.70;44.78;101815.34;4139389;28;20057;-66
2022/03/27 00:25:48;;;;;;;15.48;10.32;;;;;;;12.63;44.26;101819.53;4145239;28;20049;-66
2022/03/27 00:27:51;;;;;;;18.33;11.88;;;;;;;12.55;45.44;101816.69;4139137;28;20046;-66
2022/03/27 00:29:54;;;;;;;17.45;11.65;;;;;;;12.57;45.27;101819.34;4145772;28;20053;-66
2022/03/27 00:31:56;;;;;;;18.95;10.98;;;;;;;12.56;44.87;101818.47;4143191;28;20064;-66
2022/03/27 00:34:00;;;;;;;16.00;10.70;;;;;;;12.47;45.21;101813.00;4141769;28;20125;-66
2022/03/27 00:36:05;;;;;;;15.77;10.38;;;;;;;12.46;44.83;101812.97;4145153;28;20526;-66
2022/03/27 00:38:08;;;;;;;15.20;10.05;;;;;;;12.35;45.70;101807.44;4140729;28;20571;-66
2022/03/27 00:40:14;;;;;;;14.75;10.75;;;;;;;12.30;45.09;101809.03;4145226;28;20077;-66
2022/03/27 00:42:19;;;;;;;16.25;10.88;;;;;;;12.28;46.01;101813.31;4144708;28;20451;-66
2022/03/27 00:44:22;;;;;;;21.08;11.48;;;;;;;12.28;46.24;101815.91;4144169;28;20064;-66
2022/03/27 00:46:25;;;;;;;19.92;11.02;;;;;;;12.28;46.21;101808.09;4142965;28;20038;-66
2022/03/27 00:48:27;;;;;;;16.58;11.00;;;;;;;12.25;46.77;101810.63;4143702;28;20037;-66
2022/03/27 00:50:31;;;;;;;19.98;10.98;;;;;;;12.25;46.41;101810.63;4146221;28;20034;-66
2022/03/27 00:52:34;;;;;;;17.23;10.90;;;;;;;12.23;46.64;101811.44;4144992;28;20041;-66
2022/03/27 00:54:37;;;;;;;16.92;11.00;;;;;;;12.16;47.40;101809.53;4142963;28;20132;-64
2022/03/27 00:56:39;;;;;;;17.40;10.50;;;;;;;12.03;47.55;101809.97;4146010;28;20068;-66
2022/03/27 00:58:42;;;;;;;23.27;11.48;;;;;;;11.98;47.22;101811.56;4143520;28;20050;-66
2022/03/27 01:00:52;;;;;;;16.70;11.40;;;;;;;12.00;47.19;101815.09;4150440;28;20046;-66
2022/03/27 01:02:55;;;;;;;16.92;9.98;;;;;;;11.96;46.64;101813.22;4148912;28;20092;-66
2022/03/27 01:04:58;;;;;;;21.70;11.60;;;;;;;12.02;46.64;101811.72;4140312;28;20455;-66
2022/03/27 01:07:02;;;;;;;17.50;11.20;;;;;;;12.01;47.28;101803.84;4147011;28;20041;-66
2022/03/27 01:11:27;;;;;;;17.80;10.60;;;;;;;11.98;47.07;101806.38;4149201;28;20052;-66
2022/03/27 01:13:30;;;;;;;19.73;10.52;;;;;;;12.02;46.49;101800.41;4148221;28;20034;-66
2022/03/27 01:15:40;;;;;;;15.45;9.68;;;;;;;12.05;45.90;101797.88;4147768;28;20045;-66
2022/03/27 01:17:43;;;;;;;16.23;10.18;;;;;;;12.15;45.80;101799.03;4142646;28;20054;-66
2022/03/27 01:19:48;;;;;;;15.07;8.70;;;;;;;12.14;46.33;101797.28;4148102;28;20092;-66
2022/03/27 01:21:52;;;;;;;17.38;10.75;;;;;;;12.22;45.42;101798.38;4149126;28;20104;-66
2022/03/27 01:23:56;;;;;;;15.40;10.73;;;;;;;12.22;45.61;101795.75;4148686;28;20558;-66
2022/03/27 01:25:59;;;;;;;20.15;11.77;;;;;;;12.19;46.19;101799.19;4145400;28;20054;-66
2022/03/27 01:28:02;;;;;;;14.95;10.45;;;;;;;12.18;46.05;101789.59;4144086;28;20462;-66
2022/03/27 01:30:06;;;;;;;18.52;10.75;;;;;;;12.14;45.93;101789.47;4137677;28;20045;-66
2022/03/27 01:32:11;;;;;;;26.42;11.65;;;;;;;12.10;46.15;101793.69;4143306;28;20100;-66
2022/03/27 01:34:15;;;;;;;17.48;10.77;;;;;;;12.03;46.87;101782.22;4144548;28;20065;-66
2022/03/27 01:36:23;;;;;;;20.65;11.05;;;;;;;12.03;46.04;101789.13;4147554;28;20099;-66
2022/03/27 01:38:28;;;;;;;18.52;11.73;;;;;;;12.01;46.50;101790.81;4147338;28;20046;-66
2022/03/27 01:40:30;;;;;;;18.40;12.30;;;;;;;12.01;46.92;101796.03;4146955;28;20042;-66
2022/03/27 01:42:34;;;;;;;18.17;10.57;;;;;;;12.10;46.07;101795.41;4139514;28;20046;-66
2022/03/27 01:44:37;;;;;;;15.20;11.40;;;;;;;12.05;46.08;101788.34;4142102;28;20496;-66
2022/03/27 01:46:41;;;;;;;20.25;11.65;;;;;;;12.04;46.84;101786.56;4147430;28;20042;-66
2022/03/27 01:48:44;;;;;;;;;;;;;;;11.91;46.78;101792.22;4141754;28;20111;-66
2022/03/27 01:50:58;;;;;;;19.58;12.35;;;;;;;11.89;46.76;101780.88;4147465;28;20334;-65
2022/03/27 01:53:01;;;;;;;19.15;12.27;;;;;;;11.85;46.92;101779.00;4142225;28;20440;-65
2022/03/27 01:55:07;;;;;;;18.58;11.20;;;;;;;11.82;46.96;101782.41;4147738;28;20081;-65
2022/03/27 01:57:10;;;;;;;18.52;12.07;;;;;;;11.81;47.56;101783.25;4148406;28;20064;-65
2022/03/27 01:59:13;;;;;;;17.80;11.75;;;;;;;11.78;47.40;101777.06;4146612;28;20479;-65
2022/03/27 02:01:16;;;;;;;21.23;12.85;;;;;;;11.75;47.88;101772.63;4147847;28;20116;-65
2022/03/27 02:03:19;;;;;;;19.73;12.73;;;;;;;11.74;47.79;101775.19;4147155;28;20041;-65
2022/03/27 02:05:26;;;;;;;19.83;11.80;;;;;;;11.69;47.36;101777.66;4147632;28;20118;-65
2022/03/27 02:07:29;;;;;;;18.75;12.55;;;;;;;11.67;47.70;101774.13;4146533;28;20045;-65
2022/03/27 02:09:31;;;;;;;20.33;12.90;;;;;;;11.69;48.04;101775.91;4144132;28;20065;-65
2022/03/27 02:11:36;;;;;;;17.73;12.18;;;;;;;11.66;47.89;101777.56;4148506;28;20038;-65
2022/03/27 02:13:38;;;;;;;21.52;10.25;;;;;;;11.61;48.23;101782.63;4139699;28;20034;-65
2022/03/27 02:15:41;;;;;;;16.23;10.38;;;;;;;11.64;47.78;101774.03;4137279;28;20670;-65
2022/03/27 02:17:45;;;;;;;16.42;9.73;;;;;;;11.72;47.16;101777.75;4142478;28;20417;-65
2022/03/27 02:19:47;;;;;;;14.88;10.35;;;;;;;11.72;47.05;101772.53;4148174;28;20103;-65
2022/03/27 02:21:50;;;;;;;14.38;9.85;;;;;;;11.72;47.45;101777.75;4147894;28;20053;-65
2022/03/27 02:23:53;;;;;;;14.98;10.35;;;;;;;11.68;47.86;101778.47;4136368;28;20041;-65
2022/03/27 02:25:57;;;;;;;21.40;11.98;;;;;;;11.64;47.67;101776.66;4145073;28;20050;-65
2022/03/27 02:28:01;;;;;;;16.25;9.65;;;;;;;11.67;48.13;101774.13;4144028;28;20042;-65
2022/03/27 02:30:04;;;;;;;17.40;9.57;;;;;;;11.66;47.53;101774.97;4147859;28;20049;-65
2022/03/27 02:32:10;;;;;;;14.52;9.15;;;;;;;11.67;48.18;101780.22;4148140;28;20041;-66
2022/03/27 02:34:13;;;;;;;16.52;9.88;;;;;;;11.72;47.75;101780.34;4145105;28;20030;-65
2022/03/27 02:36:16;;;;;;;14.32;10.52;;;;;;;11.72;47.77;101780.34;4140155;28;20030;-65
2022/03/27 02:38:19;;;;;;;16.17;10.35;;;;;;;11.74;47.98;101780.41;4140279;28;20038;-65
2022/03/27 02:40:22;;;;;;;16.65;10.43;;;;;;;11.75;48.20;101776.97;4141719;28;20045;-65
2022/03/27 02:42:25;;;;;;;15.88;10.23;;;;;;;11.72;47.87;101776.88;4140936;28;20104;-65
2022/03/27 02:44:29;;;;;;;15.75;10.38;;;;;;;11.67;47.85;101775.00;4145526;28;20038;-65
2022/03/27 02:46:31;;;;;;;15.82;10.60;;;;;;;11.62;48.33;101773.09;4148317;28;20463;-65
2022/03/27 02:48:34;;;;;;;17.80;10.13;;;;;;;11.62;48.28;101774.00;4147378;28;20049;-65
2022/03/27 02:50:39;;;;;;;16.73;10.73;;;;;;;11.59;47.89;101773.00;4146844;28;20412;-65
2022/03/27 02:52:41;;;;;;;16.58;10.98;;;;;;;11.54;47.95;101778.06;4140264;28;20042;-65
2022/03/27 02:54:45;;;;;;;17.02;9.98;;;;;;;11.50;49.09;101777.06;4146718;28;20041;-65
2022/03/27 02:56:48;;;;;;;15.40;10.35;;;;;;;11.47;49.27;101769.16;4146536;28;20049;-65
2022/03/27 02:58:50;;;;;;;13.13;9.65;;;;;;;11.49;48.21;101770.13;4140498;28;20503;-65
2022/03/27 03:00:55;;;;;;;15.23;9.90;;;;;;;11.47;49.04;101771.78;4146861;28;20042;-65
2022/03/27 03:02:57;;;;;;;17.55;10.77;;;;;;;11.43;48.77;101771.63;4142866;28;20048;-65
2022/03/27 03:05:01;;;;;;;17.40;10.13;;;;;;;11.40;48.53;101775.00;4148095;28;20037;-65
2022/03/27 03:07:04;;;;;;;13.73;9.75;;;;;;;11.39;49.32;101782.78;4140384;28;20049;-65
2022/03/27 03:09:07;;;;;;;16.83;10.13;;;;;;;11.34;49.39;101780.03;4140095;28;20037;-65
2022/03/27 03:11:13;;;;;;;14.32;9.25;;;;;;;11.31;48.75;101786.00;4142513;28;20038;-65
2022/03/27 03:13:16;;;;;;;14.63;10.40;;;;;;;11.30;49.03;101779.06;4142605;28;20092;-65
2022/03/27 03:15:19;;;;;;;16.73;9.38;;;;;;;11.28;49.01;101790.25;4144286;28;20068;-65
2022/03/27 03:17:23;;;;;;;19.00;11.68;;;;;;;11.28;49.10;101782.44;4143868;28;20100;-65
2022/03/27 03:19:26;;;;;;;17.05;10.27;;;;;;;11.25;49.58;101791.03;4143105;28;20096;-65
2022/03/27 03:21:29;;;;;;;15.18;11.60;;;;;;;11.26;49.71;101784.13;4144608;28;20084;-65
2022/03/27 03:23:32;;;;;;;16.33;10.45;;;;;;;11.31;49.06;101787.75;4144573;28;20460;-65
2022/03/27 03:25:35;;;;;;;16.90;10.25;;;;;;;11.23;50.06;101782.28;4147289;28;20060;-65
2022/03/27 03:27:58;;;;;;;18.02;11.32;;;;;;;11.30;49.63;101788.56;4142895;28;20186;-65
2022/03/27 03:30:00;;;;;;;18.48;10.95;;;;;;;11.24;49.98;101785.78;4140114;28;20045;-65
2022/03/27 03:32:04;;;;;;;17.42;11.88;;;;;;;11.20;49.48;101787.41;4141293;28;20042;-65
2022/03/27 03:34:08;;;;;;;20.70;11.63;;;;;;;11.21;50.15;101789.16;4146116;28;20048;-65
2022/03/27 03:36:11;;;;;;;19.10;12.10;;;;;;;11.15;50.06;101792.44;4146517;28;20049;-65
2022/03/27 03:38:14;;;;;;;20.10;12.18;;;;;;;11.15;50.43;101797.63;4147830;28;20034;-65
2022/03/27 03:40:18;;;;;;;16.20;12.45;;;;;;;11.15;50.60;101795.03;4143292;28;20096;-65
2022/03/27 03:42:21;;;;;;;15.48;12.05;;;;;;;11.21;50.48;101793.47;4146577;28;20037;-65
2022/03/27 03:44:24;;;;;;;20.23;13.50;;;;;;;11.11;50.36;101784.47;4146401;28;20030;-65
2022/03/27 03:46:27;;;;;;;17.95;12.52;;;;;;;11.07;50.46;101795.59;4146815;28;20057;-65
2022/03/27 03:48:30;;;;;;;26.10;13.98;;;;;;;11.02;50.55;101798.06;4138176;28;20092;-65
2022/03/27 03:50:35;;;;;;;18.65;13.05;;;;;;;10.96;50.75;101793.53;4141114;28;20030;-65
2022/03/27 03:52:38;;;;;;;17.05;13.00;;;;;;;10.98;50.73;101788.38;4146325;28;20099;-65
2022/03/27 03:54:40;;;;;;;17.48;11.40;;;;;;;10.95;50.61;101794.38;4138853;28;20554;-65
2022/03/27 03:56:43;;;;;;;22.77;13.80;;;;;;;10.93;50.47;101795.16;4146670;28;20068;-65
2022/03/27 03:58:46;;;;;;;18.88;13.18;;;;;;;10.92;50.87;101790.78;4144892;28;20104;-65
2022/03/27 04:00:50;;;;;;;18.48;13.52;;;;;;;10.88;51.14;101789.81;4146406;28;20489;-65
2022/03/27 04:02:54;;;;;;;18.55;13.85;;;;;;;10.82;51.34;101787.00;4138940;28;20046;-65
2022/03/27 04:04:56;;;;;;;18.58;12.15;;;;;;;10.74;51.30;101788.44;4145612;28;20034;-65
2022/03/27 04:07:01;;;;;;;20.77;14.70;;;;;;;10.77;51.25;101786.81;4140936;28;20050;-65
2022/03/27 04:09:04;;;;;;;19.88;14.68;;;;;;;10.72;52.21;101782.28;4144926;28;20104;-65
2022/03/27 04:11:07;;;;;;;18.95;14.25;;;;;;;10.70;51.64;101783.94;4145360;28;20042;-65
2022/03/27 04:13:10;;;;;;;19.35;13.07;;;;;;;10.67;51.48;101787.31;4146541;28;20033;-65
2022/03/27 04:15:13;;;;;;;20.10;13.90;;;;;;;10.66;51.48;101790.78;4143132;28;20034;-65
2022/03/27 04:17:16;;;;;;;22.33;14.90;;;;;;;10.62;51.89;101786.28;4143483;28;20362;-65
2022/03/27 04:19:19;;;;;;;23.67;14.55;;;;;;;10.58;52.20;101794.81;4144792;28;20049;-65
2022/03/27 04:21:21;;;;;;;21.30;15.52;;;;;;;10.57;52.80;101793.03;4145215;28;20046;-65
2022/03/27 04:23:25;;;;;;;24.42;15.00;;;;;;;10.53;52.72;101789.44;4146466;28;20079;-65
2022/03/27 04:25:29;;;;;;;38.73;14.57;;;;;;;10.53;52.34;101789.44;4146400;28;20049;-65
2022/03/27 04:27:31;;;;;;;22.05;13.38;;;;;;;10.51;52.40;101792.81;4145975;28;20351;-65
2022/03/27 04:29:34;;;;;;;22.88;14.98;;;;;;;10.50;52.58;101791.94;4147191;28;20403;-65
2022/03/27 04:31:37;;;;;;;18.45;13.15;;;;;;;10.54;52.49;101790.31;4139531;28;20046;-65
2022/03/27 04:33:40;;;;;;;20.27;14.10;;;;;;;10.53;52.77;101792.06;4147737;28;20054;-65
2022/03/27 04:35:42;;;;;;;22.65;14.05;;;;;;;10.56;52.89;101792.16;4148525;28;20084;-65
2022/03/27 04:37:46;;;;;;;20.42;13.45;;;;;;;10.56;52.93;101799.09;4148524;28;20542;-65
2022/03/27 04:39:50;;;;;;;19.65;13.90;;;;;;;10.48;53.15;101791.88;4150546;28;20401;-65
2022/03/27 04:41:53;;;;;;;19.05;12.77;;;;;;;10.43;52.77;101795.16;4148954;28;20045;-65
2022/03/27 04:43:55;;;;;;;19.08;12.27;;;;;;;10.44;53.12;101808.19;4149710;28;20050;-65
2022/03/27 04:45:58;;;;;;;19.27;13.10;;;;;;;10.43;53.28;101797.75;4148725;28;20046;-65
2022/03/27 04:48:01;;;;;;;18.25;13.25;;;;;;;10.41;53.34;101799.38;4145296;28;20038;-66
2022/03/27 04:50:05;;;;;;;24.63;14.43;;;;;;;10.42;52.91;101803.78;4142591;28;20049;-66
2022/03/27 04:52:08;;;;;;;19.90;13.55;;;;;;;10.37;53.52;101808.81;4144233;28;20088;-66
2022/03/27 04:54:11;;;;;;;22.30;14.48;;;;;;;10.35;53.91;101802.66;4146218;28;20048;-66
2022/03/27 04:56:15;;;;;;;20.13;13.63;;;;;;;10.34;53.85;101797.38;4150126;28;20034;-66
2022/03/27 04:58:18;;;;;;;24.70;14.52;;;;;;;10.24;53.81;101798.75;4142807;28;20099;-66
2022/03/27 05:00:21;;;;;;;24.30;15.13;;;;;;;10.24;53.96;101807.44;4147527;28;20054;-65
2022/03/27 05:02:23;;;;;;;20.40;13.68;;;;;;;10.22;53.69;101803.91;4142026;28;20045;-66
2022/03/27 05:04:26;;;;;;;17.92;13.88;;;;;;;10.13;54.28;101804.44;4145847;28;20045;-65
2022/03/27 05:06:30;;;;;;;21.55;14.77;;;;;;;10.07;54.22;101804.19;4144860;28;20096;-66
2022/03/27 05:08:34;;;;;;;23.60;15.50;;;;;;;10.04;54.25;101818.78;4144307;28;20085;-65
2022/03/27 05:10:37;;;;;;;18.13;13.63;;;;;;;10.01;54.40;101813.47;4147344;28;20046;-65
2022/03/27 05:12:41;;;;;;;21.10;13.90;;;;;;;10.03;54.53;101812.72;4143791;28;20104;-66
2022/03/27 05:14:44;;;;;;;19.23;13.88;;;;;;;10.06;54.11;101814.53;4145118;28;20111;-66
2022/03/27 05:16:47;;;;;;;17.95;13.30;;;;;;;10.09;54.53;101814.63;4147539;28;20531;-66
2022/03/27 05:18:49;;;;;;;22.73;14.93;;;;;;;10.16;54.41;101813.16;4149083;28;20041;-66
2022/03/27 05:20:52;;;;;;;22.67;14.27;;;;;;;10.17;54.05;101815.81;4148108;28;20117;-66
2022/03/27 05:22:55;;;;;;;19.48;14.60;;;;;;;10.19;53.94;101818.47;4148011;28;20463;-66
2022/03/27 05:24:58;;;;;;;21.10;14.18;;;;;;;10.20;54.07;101815.06;4148884;28;20101;-66
2022/03/27 05:27:01;;;;;;;21.33;13.80;;;;;;;10.19;54.47;101821.97;4146293;28;20042;-66
2022/03/27 05:29:08;;;;;;;24.13;15.27;;;;;;;10.24;53.79;101819.53;4148229;28;20046;-66
2022/03/27 05:31:10;;;;;;;23.25;14.82;;;;;;;10.20;54.00;101821.13;4148075;28;20041;-66
2022/03/27 05:33:13;;;;;;;24.50;15.00;;;;;;;10.20;54.32;101812.47;4148670;28;20546;-66
2022/03/27 05:35:17;;;;;;;19.83;14.38;;;;;;;10.19;54.04;101816.78;4147796;28;20073;-66
2022/03/27 05:37:20;;;;;;;21.58;12.73;;;;;;;10.19;54.30;101816.78;4145814;28;20045;-66
2022/03/27 05:39:23;;;;;;;20.08;12.90;;;;;;;10.17;54.31;101818.41;4149658;28;20108;-66
2022/03/27 05:41:26;;;;;;;22.88;13.70;;;;;;;10.18;54.34;101820.19;4143942;28;20049;-66
2022/03/27 05:43:28;;;;;;;22.80;15.45;;;;;;;10.18;54.46;101828.00;4144945;28;20104;-66
2022/03/27 05:45:34;;;;;;;23.80;16.20;;;;;;;10.18;54.47;101829.69;4144982;28;20447;-66
2022/03/27 05:47:38;;;;;;;20.88;14.77;;;;;;;10.17;54.57;101827.94;4141778;28;20037;-66
2022/03/27 05:49:41;;;;;;;21.52;15.27;;;;;;;10.22;53.97;101827.28;4140038;28;20050;-66
2022/03/27 05:51:45;;;;;;;20.95;15.50;;;;;;;10.23;54.12;101833.34;4146485;28;20042;-66
2022/03/27 05:53:48;;;;;;;20.90;14.73;;;;;;;10.24;54.24;101835.13;4145840;28;20042;-66
2022/03/27 05:55:51;;;;;;;22.70;15.10;;;;;;;10.25;54.02;101834.28;4143299;28;20089;-66
2022/03/27 05:57:54;;;;;;;24.25;14.88;;;;;;;10.38;53.96;101833.97;4143079;28;20061;-66
2022/03/27 05:59:56;;;;;;;20.63;14.80;;;;;;;10.38;54.15;101828.78;4149041;28;20046;-66
2022/03/27 06:02:00;;;;;;;25.05;16.27;;;;;;;10.39;53.87;101834.84;4145723;28;20045;-66
2022/03/27 06:04:03;;;;;;;21.48;14.63;;;;;;;10.39;54.17;101834.84;4149185;28;20038;-66
2022/03/27 06:06:06;;;;;;;22.00;15.15;;;;;;;10.46;53.76;101839.44;4147188;28;20534;-66
2022/03/27 06:08:09;;;;;;;23.23;15.23;;;;;;;10.35;53.92;101833.84;4142006;28;20107;-66
2022/03/27 06:10:13;;;;;;;21.95;15.15;;;;;;;10.32;54.29;101838.91;4147054;28;20100;-66
2022/03/27 06:12:15;;;;;;;20.70;14.52;;;;;;;10.35;54.46;101841.63;4147963;28;20038;-66
2022/03/27 06:14:18;;;;;;;21.88;15.52;;;;;;;10.41;54.02;101846.19;4145640;28;20038;-66
2022/03/27 06:16:21;;;;;;;20.58;14.18;;;;;;;10.44;54.04;101844.59;4144263;28;20140;-66
2022/03/27 06:18:25;;;;;;;20.98;15.07;;;;;;;10.46;54.25;101842.94;4147069;28;20042;-66
2022/03/27 06:20:30;;;;;;;21.65;15.13;;;;;;;10.51;53.75;101847.41;4146236;28;20061;-66
2022/03/27 06:22:33;;;;;;;;;;;;;;;10.41;54.40;101838.38;4141974;28;20089;-66
2022/03/27 06:24:35;;;;;;;22.33;16.30;;;;;;;10.44;53.99;101846.28;4148819;28;20036;-66
2022/03/27 06:26:38;;;;;;;20.40;14.98;;;;;;;10.45;54.33;101848.97;4136540;28;20039;-66
2022/03/27 06:28:41;;;;;;;25.05;15.57;;;;;;;10.47;54.10;101849.91;4147391;28;20053;-66
2022/03/27 06:30:44;;;;;;;19.20;13.45;;;;;;;10.49;53.99;101855.16;4146753;28;20046;-66
2022/03/27 06:32:47;;;;;;;23.63;15.52;;;;;;;10.63;54.12;101855.66;4146835;28;20092;-66
2022/03/27 06:34:51;;;;;;;23.40;16.00;;;;;;;10.73;53.74;101857.78;4147557;28;20508;-66
2022/03/27 06:36:54;;;;;;;21.85;17.10;;;;;;;10.76;54.03;101857.91;4147983;28;20072;-66
2022/03/27 06:38:57;;;;;;;25.02;16.85;;;;;;;10.81;53.27;101855.47;4146599;28;20058;-66
2022/03/27 06:41:00;;;;;;;23.95;16.13;;;;;;;10.69;53.71;101850.69;4145446;28;20116;-66
2022/03/27 06:43:04;;;;;;;25.25;16.80;;;;;;;10.77;53.46;101854.44;4146247;28;20038;-65
2022/03/27 06:45:08;;;;;;;25.77;16.90;;;;;;;10.68;53.92;101856.72;4144921;28;20182;-66
2022/03/27 06:47:10;;;;;;;23.70;16.63;;;;;;;10.65;54.49;101865.28;4148562;28;20308;-66
2022/03/27 06:49:13;;;;;;;23.38;16.73;;;;;;;10.46;54.91;101861.13;4145786;28;20042;-66
2022/03/27 06:51:18;;;;;;;23.70;16.88;;;;;;;10.57;54.46;101865.84;4148253;28;20042;-66
2022/03/27 06:53:24;;;;;;;23.63;15.65;;;;;;;10.52;55.15;101862.19;4146944;28;20053;-66
2022/03/27 06:55:28;;;;;;;25.27;17.60;;;;;;;10.67;54.63;101865.34;4147019;28;20108;-66
2022/03/27 06:57:30;;;;;;;23.05;16.42;;;;;;;10.85;54.18;101872.03;4146588;28;20050;-66
2022/03/27 07:04:10;;;;;;;25.05;16.75;;;;;;;10.76;54.38;101868.31;4117462;28;20050;-67
2022/03/27 07:06:16;;;;;;;22.17;15.32;;;;;;;10.86;54.33;101872.09;4148116;28;20408;-66
2022/03/27 07:08:20;;;;;;;22.20;15.68;;;;;;;10.97;54.63;101865.56;4159002;28;20545;-68
2022/03/27 07:10:23;;;;;;;;;;;;;;;10.98;54.35;101867.34;4142290;28;20063;-66
2022/03/27 07:12:26;;;;;;;24.13;16.98;;;;;;;11.19;53.99;101868.91;4147087;28;20015;-66
2022/03/27 07:14:29;;;;;;;24.02;17.48;;;;;;;11.16;53.43;101866.22;4143374;28;20053;-66
2022/03/27 07:16:32;;;;;;;23.63;16.90;;;;;;;11.19;54.25;101863.72;4143959;28;20037;-67
2022/03/27 07:18:34;;;;;;;21.10;15.55;;;;;;;11.13;53.82;101861.78;4147918;28;20046;-68
2022/03/27 07:20:43;;;;;;;27.30;16.10;;;;;;;11.14;54.33;101860.06;4134451;28;20066;-68
2022/03/27 07:22:46;;;;;;;23.17;15.55;;;;;;;11.02;54.47;101864.84;4147596;28;20093;-65
2022/03/27 07:24:50;;;;;;;22.20;16.67;;;;;;;11.17;54.09;101866.28;4142714;28;20042;-65
2022/03/27 07:26:53;;;;;;;26.67;17.52;;;;;;;11.25;54.66;101860.44;4144639;28;20050;-65
2022/03/27 07:28:55;;;;;;;21.40;15.35;;;;;;;11.33;54.29;101862.47;4147926;28;20046;-65
2022/03/27 07:30:59;;;;;;;23.70;14.73;;;;;;;11.45;53.75;101867.19;4148084;28;20053;-65
2022/03/27 07:33:03;;;;;;;24.60;15.30;;;;;;;11.47;53.69;101862.91;4144693;28;20056;-65
2022/03/27 07:35:08;;;;;;;22.85;15.60;;;;;;;11.51;53.36;101867.41;4147324;28;20049;-69
2022/03/27 07:37:10;;;;;;;20.30;15.52;;;;;;;11.65;52.75;101869.56;4153479;28;20048;-66
2022/03/27 07:39:13;;;;;;;23.63;15.95;;;;;;;11.83;52.54;101864.06;4148637;28;20092;-66
2022/03/27 07:41:17;;;;;;;22.27;15.32;;;;;;;11.98;51.65;101874.13;4137152;28;20045;-66
2022/03/27 07:43:21;;;;;;;20.35;14.57;;;;;;;11.96;52.31;101867.97;4139169;28;20484;-66
2022/03/27 07:45:26;;;;;;;20.73;14.00;;;;;;;12.15;51.61;101869.41;4139611;28;20100;-66
2022/03/27 07:47:29;;;;;;;21.98;14.80;;;;;;;12.29;51.14;101875.94;4139063;28;20050;-65
2022/03/27 07:49:31;;;;;;;18.63;13.32;;;;;;;12.40;50.90;101869.31;4134945;28;20076;-65
2022/03/27 07:51:35;;;;;;;20.05;15.73;;;;;;;12.49;50.15;101870.44;4138745;28;20042;-65
2022/03/27 07:53:37;;;;;;;21.05;12.63;;;;;;;12.62;50.21;101872.56;4116545;28;20092;-65
2022/03/27 07:55:40;;;;;;;20.52;13.77;;;;;;;12.76;49.23;101862.50;4154281;28;20054;-66
2022/03/27 07:57:45;;;;;;;19.77;13.82;;;;;;;12.74;49.43;101867.66;4133968;28;20476;-65
2022/03/27 07:59:48;;;;;;;18.88;13.70;;;;;;;12.82;49.48;101874.81;4143184;28;20038;-66
2022/03/27 08:01:51;;;;;;;25.85;14.35;;;;;;;12.81;48.77;101873.97;4139719;28;20053;-66
2022/03/27 08:03:56;;;;;;;19.08;12.95;;;;;;;12.88;49.19;101875.03;4141975;28;20411;-71
2022/03/27 08:05:59;;;;;;;22.52;13.40;;;;;;;13.00;48.87;101870.13;4136721;28;20445;-65
2022/03/27 08:08:02;;;;;;;18.92;13.02;;;;;;;13.06;48.65;101872.00;4141553;28;20042;-65
2022/03/27 08:10:06;;;;;;;21.38;13.55;;;;;;;13.03;48.50;101864.97;4146714;28;20056;-64
2022/03/27 08:12:11;;;;;;;19.75;12.95;;;;;;;13.14;48.25;101860.06;4141034;28;20038;-64
2022/03/27 08:14:15;;;;;;;18.85;14.20;;;;;;;13.24;48.48;101869.91;4138801;28;20045;-65
2022/03/27 08:16:17;;;;;;;22.05;14.85;;;;;;;13.31;48.64;101868.31;4141321;28;20065;-65
2022/03/27 08:18:20;;;;;;;20.25;14.25;;;;;;;13.23;49.35;101869.84;4142271;28;20048;-65
2022/03/27 08:20:24;;;;;;;21.23;15.18;;;;;;;13.31;49.03;101868.31;4133508;28;20047;-65
2022/03/27 08:22:27;;;;;;;21.02;15.88;;;;;;;13.54;48.55;101871.53;4145129;28;20409;-65
2022/03/27 08:24:30;;;;;;;21.35;15.70;;;;;;;13.47;48.99;101867.00;4142467;28;20468;-66
2022/03/27 08:28:53;;;;;;;18.88;14.50;;;;;;;13.40;49.40;101867.69;4152981;28;20127;-75
2022/03/27 08:30:57;;;;;;;18.63;14.35;;;;;;;13.44;49.50;101872.16;4143224;28;20046;-69
2022/03/27 08:32:59;;;;;;;23.58;16.73;;;;;;;13.68;49.13;101868.38;4136308;28;20122;-74
2022/03/27 08:35:02;;;;;;;22.10;15.73;;;;;;;13.78;48.88;101860.81;4143099;28;20068;-66
2022/03/27 08:37:09;;;;;;;24.05;15.68;;;;;;;13.79;48.58;101862.56;4140656;28;20042;-73
2022/03/27 08:39:14;;;;;;;20.75;14.32;;;;;;;13.86;48.85;101866.19;4145432;28;20646;-72
2022/03/27 08:41:17;;;;;;;22.75;17.20;;;;;;;14.04;48.94;101867.47;4136658;28;20104;-69
2022/03/27 08:43:20;;;;;;;22.10;15.43;;;;;;;14.11;48.09;101866.78;4136369;28;20112;-71
2022/03/27 08:45:23;;;;;;;22.17;15.27;;;;;;;14.18;48.54;101857.31;4135725;28;20519;-72
2022/03/27 08:47:28;;;;;;;22.55;16.50;;;;;;;14.36;47.42;101870.78;4137606;28;20045;-71
2022/03/27 08:49:40;;;;;;;20.30;14.68;;;;;;;14.21;48.20;101860.00;4136532;28;20108;-70
2022/03/27 08:51:48;;;;;;;22.67;15.40;;;;;;;14.38;48.05;101857.75;4144414;28;20054;-69
2022/03/27 08:54:01;;;;;;;21.70;15.52;;;;;;;14.46;47.87;101862.28;4140559;28;20053;-70
2022/03/27 08:56:06;;;;;;;19.13;14.48;;;;;;;14.46;47.28;101864.91;4145582;28;20452;-72
2022/03/27 08:58:11;;;;;;;20.92;16.05;;;;;;;14.56;47.91;101862.47;4147032;28;20041;-70
2022/03/27 09:00:14;;;;;;;20.05;16.10;;;;;;;14.56;47.78;101855.50;4139525;28;20092;-71
2022/03/27 09:02:19;;;;;;;19.63;14.50;;;;;;;14.70;47.49;101854.94;4142664;28;20046;-70
2022/03/27 09:04:23;;;;;;;20.13;13.77;;;;;;;14.63;47.15;101860.06;4138720;28;20463;-75
2022/03/27 09:06:26;;;;;;;16.23;12.55;;;;;;;14.70;46.92;101858.41;4145288;28;20061;-69
2022/03/27 09:08:30;;;;;;;24.95;16.42;;;;;;;15.03;46.43;101859.06;4142277;28;20034;-71
2022/03/27 09:10:32;;;;;;;20.50;14.15;;;;;;;15.12;45.71;101867.94;4143924;28;20060;-69
2022/03/27 09:12:35;;;;;;;29.00;15.25;;;;;;;15.23;45.10;101857.69;4143237;28;20120;-72
2022/03/27 09:14:39;;;;;;;20.60;14.93;;;;;;;15.29;45.57;101863.00;4138171;28;20046;-74
2022/03/27 09:17:01;;;;;;;23.52;14.82;;;;;;;15.41;43.29;101861.47;4131068;28;20042;-66
2022/03/27 09:19:03;;;;;;;18.83;13.50;;;;;;;15.38;43.77;101861.41;4134224;28;20049;-77
2022/03/27 09:21:08;;;;;;;22.13;14.60;;;;;;;15.46;44.03;101855.44;4142934;28;20399;-74
2022/03/27 09:23:30;;;;;;;16.88;13.35;;;;;;;15.65;42.82;101855.72;4142685;28;20042;-79
2022/03/27 09:25:43;;;;;;;21.17;13.75;;;;;;;15.75;43.25;101857.63;4141948;28;20049;-78
2022/03/27 09:27:46;;;;;;;20.70;14.07;;;;;;;15.92;42.44;101859.69;4140179;28;20081;-67
2022/03/27 09:30:03;;;;;;;19.52;12.90;;;;;;;15.73;43.11;101855.88;4135273;28;20050;-68
2022/03/27 09:32:07;;;;;;;20.13;15.18;;;;;;;15.93;43.08;101857.06;4145155;28;20459;-69